createdAt,value
2023-05-07T00:00:23.173Z,14.23
2023-05-07T00:02:51.811Z,16.30
2023-05-07T00:05:20.485Z,15.48
2023-05-07T00:07:49.682Z,15.57
2023-05-07T00:10:19.511Z,15.43
2023-05-07T00:12:48.028Z,14.43
2023-05-07T00:15:16.458Z,16.50
2023-05-07T00:17:44.998Z,14.95
2023-05-07T00:20:13.923Z,14.68
2023-05-07T00:22:42.439Z,15.85
2023-05-07T00:25:11.308Z,15.45
2023-05-07T00:27:41.190Z,15.50
2023-05-07T00:30:10.906Z,14.30
2023-05-07T00:32:39.564Z,15.65
2023-05-07T00:35:08.952Z,14.97
2023-05-07T00:37:37.506Z,15.23
2023-05-07T00:40:08.378Z,15.32
2023-05-07T00:42:36.863Z,14.73
2023-05-07T00:45:07.544Z,14.20
2023-05-07T00:47:36.096Z,13.73
2023-05-07T00:50:04.537Z,15.20
2023-05-07T00:52:32.991Z,13.90
2023-05-07T00:55:02.835Z,13.95
2023-05-07T00:57:31.330Z,13.77
2023-05-07T00:59:59.721Z,16.90
2023-05-07T01:02:29.615Z,15.23
2023-05-07T01:04:58.162Z,17.60
2023-05-07T01:07:26.956Z,14.67
2023-05-07T01:09:55.801Z,14.83
2023-05-07T01:12:24.542Z,15.23
2023-05-07T01:14:52.971Z,14.03
2023-05-07T01:17:21.799Z,15.07
2023-05-07T01:19:51.883Z,14.70
2023-05-07T01:22:23.780Z,15.00
2023-05-07T01:24:55.107Z,19.38
2023-05-07T01:27:23.502Z,16.27
2023-05-07T01:29:51.948Z,16.97
2023-05-07T01:32:21.734Z,18.45
2023-05-07T01:34:52.267Z,17.10
2023-05-07T01:37:20.748Z,18.83
2023-05-07T01:39:49.696Z,17.20
2023-05-07T01:42:19.519Z,18.97
2023-05-07T01:44:48.113Z,16.88
2023-05-07T01:47:16.738Z,17.20
2023-05-07T01:49:45.547Z,16.73
2023-05-07T01:52:14.215Z,16.08
2023-05-07T01:54:42.647Z,16.20
2023-05-07T01:57:11.117Z,16.17
2023-05-07T01:59:40.991Z,18.73
2023-05-07T02:02:09.590Z,20.07
2023-05-07T02:04:38.083Z,19.00
2023-05-07T02:07:06.513Z,19.23
2023-05-07T02:09:34.933Z,18.53
2023-05-07T02:12:03.362Z,19.13
2023-05-07T02:14:31.813Z,18.10
2023-05-07T02:17:01.611Z,17.52
2023-05-07T02:19:30.037Z,19.50
2023-05-07T02:21:58.470Z,21.50
2023-05-07T02:24:26.860Z,21.30
2023-05-07T02:26:55.275Z,20.38
2023-05-07T02:29:23.718Z,20.87
2023-05-07T02:31:54.070Z,19.43
2023-05-07T02:34:24.155Z,20.73
2023-05-07T02:36:52.549Z,20.23
2023-05-07T02:39:20.957Z,20.27
2023-05-07T02:41:49.413Z,21.70
2023-05-07T02:44:17.824Z,20.37
2023-05-07T02:46:46.234Z,23.63
2023-05-07T02:49:14.667Z,23.53
2023-05-07T02:51:44.435Z,24.93
2023-05-07T02:54:12.839Z,23.77
2023-05-07T02:56:41.260Z,25.83
2023-05-07T02:59:09.652Z,23.93
2023-05-07T03:01:38.117Z,25.80
2023-05-07T03:04:06.864Z,25.10
2023-05-07T03:06:35.369Z,24.73
2023-05-07T03:09:05.595Z,28.57
2023-05-07T03:11:34.066Z,21.83
2023-05-07T03:14:02.495Z,22.77
2023-05-07T03:16:31.135Z,19.53
2023-05-07T03:18:59.706Z,20.77
2023-05-07T03:21:28.727Z,19.53
2023-05-07T03:23:57.175Z,20.03
2023-05-07T03:26:27.128Z,23.20
2023-05-07T03:28:56.414Z,23.27
2023-05-07T03:31:24.972Z,26.83
2023-05-07T03:33:54.067Z,24.63
2023-05-07T03:36:22.789Z,24.93
2023-05-07T03:38:51.205Z,27.80
2023-05-07T03:41:19.627Z,26.03
2023-05-07T03:43:49.381Z,27.97
2023-05-07T03:46:17.822Z,27.63
2023-05-07T03:48:46.257Z,24.07
2023-05-07T03:51:14.671Z,26.73
2023-05-07T03:53:43.092Z,29.67
2023-05-07T03:56:11.572Z,28.90
2023-05-07T03:58:39.999Z,25.53
2023-05-07T04:01:09.816Z,26.83
2023-05-07T04:03:38.394Z,25.30
2023-05-07T04:06:06.961Z,27.37
2023-05-07T04:08:35.368Z,23.67
2023-05-07T04:11:03.832Z,25.93
2023-05-07T04:13:32.600Z,24.07
2023-05-07T04:16:01.058Z,21.17
2023-05-07T04:18:30.930Z,24.07
2023-05-07T04:20:59.380Z,23.57
2023-05-07T04:23:27.891Z,23.60
2023-05-07T04:25:57.059Z,20.70
2023-05-07T04:28:25.497Z,22.83
2023-05-07T04:30:53.991Z,21.67
2023-05-07T04:33:22.483Z,22.63
2023-05-07T04:35:52.356Z,20.83
2023-05-07T04:38:20.772Z,21.07
2023-05-07T04:40:49.217Z,20.40
2023-05-07T04:43:17.837Z,23.03
2023-05-07T04:45:46.310Z,19.63
2023-05-07T04:48:15.698Z,21.33
2023-05-07T04:50:44.254Z,20.13
2023-05-07T04:53:14.056Z,18.80
2023-05-07T04:55:42.473Z,18.03
2023-05-07T04:58:10.978Z,17.83
2023-05-07T05:00:39.822Z,16.63
2023-05-07T05:03:09.160Z,18.73
2023-05-07T05:05:37.620Z,17.87
2023-05-07T05:08:06.249Z,17.73
2023-05-07T05:10:36.073Z,17.87
2023-05-07T05:13:04.581Z,18.80
2023-05-07T05:15:34.061Z,16.90
2023-05-07T05:18:02.735Z,17.93
2023-05-07T05:20:31.243Z,16.67
2023-05-07T05:22:59.646Z,19.33
2023-05-07T05:25:28.642Z,18.27
2023-05-07T05:27:58.665Z,18.40
2023-05-07T05:30:27.216Z,17.13
2023-05-07T05:32:55.991Z,15.60
2023-05-07T05:35:24.416Z,14.63
2023-05-07T05:37:52.813Z,14.33
2023-05-07T05:40:21.526Z,15.07
2023-05-07T05:42:49.922Z,13.77
2023-05-07T05:45:19.811Z,18.17
2023-05-07T05:47:48.398Z,12.50
2023-05-07T05:50:16.823Z,15.63
2023-05-07T05:52:45.216Z,13.13
2023-05-07T05:55:13.679Z,13.17
2023-05-07T05:57:42.154Z,14.07
2023-05-07T06:00:11.547Z,14.93
2023-05-07T06:02:41.705Z,17.97
2023-05-07T06:05:10.654Z,13.60
2023-05-07T06:07:39.193Z,14.27
2023-05-07T06:10:08.326Z,14.47
2023-05-07T06:12:36.806Z,14.37
2023-05-07T06:15:05.420Z,14.10
2023-05-07T06:17:33.962Z,15.17
2023-05-07T06:20:03.812Z,14.70
2023-05-07T06:22:32.255Z,14.00
2023-05-07T06:25:00.744Z,14.35
2023-05-07T06:27:29.602Z,13.38
2023-05-07T06:29:58.064Z,14.95
2023-05-07T06:32:26.618Z,14.02
2023-05-07T06:34:55.086Z,14.45
2023-05-07T06:37:24.876Z,15.20
2023-05-07T06:39:53.300Z,15.13
2023-05-07T06:42:21.691Z,15.35
2023-05-07T06:44:50.095Z,12.50
2023-05-07T06:47:18.560Z,11.77
2023-05-07T06:49:46.997Z,11.35
2023-05-07T06:52:15.400Z,11.23
2023-05-07T06:54:45.369Z,11.45
2023-05-07T06:57:13.782Z,10.50
2023-05-07T06:59:42.195Z,11.20
2023-05-07T07:02:10.629Z,10.15
2023-05-07T07:04:39.795Z,10.48
2023-05-07T07:07:08.376Z,10.63
2023-05-07T07:09:36.785Z,10.57
2023-05-07T07:12:06.788Z,9.18
2023-05-07T07:14:35.229Z,8.05
2023-05-07T07:17:03.678Z,7.93
2023-05-07T07:19:32.084Z,7.80
2023-05-07T07:22:00.535Z,8.57
2023-05-07T07:24:28.975Z,7.10
2023-05-07T07:26:57.889Z,7.70
2023-05-07T07:29:28.116Z,7.93
2023-05-07T07:31:56.874Z,7.47
2023-05-07T07:34:25.501Z,8.20
2023-05-07T07:36:53.890Z,7.53
2023-05-07T07:39:22.331Z,7.60
2023-05-07T07:41:50.761Z,7.82
2023-05-07T07:44:19.168Z,7.72
2023-05-07T07:46:48.989Z,7.07
2023-05-07T07:49:17.470Z,7.90
2023-05-07T07:51:46.493Z,8.00
2023-05-07T07:54:15.044Z,8.63
2023-05-07T07:56:43.426Z,9.02
2023-05-07T07:59:11.818Z,9.02
2023-05-07T08:01:40.273Z,8.40
2023-05-07T08:04:10.166Z,7.95
2023-05-07T08:06:38.703Z,6.75
2023-05-07T08:09:07.257Z,7.75
2023-05-07T08:11:35.732Z,7.85
2023-05-07T08:14:04.165Z,7.53
2023-05-07T08:16:32.657Z,7.50
2023-05-07T08:19:01.262Z,7.65
2023-05-07T08:21:33.786Z,7.85
2023-05-07T08:24:02.953Z,7.82
2023-05-07T08:26:31.352Z,8.52
2023-05-07T08:28:59.783Z,8.65
2023-05-07T08:31:28.265Z,8.35
2023-05-07T08:33:56.789Z,8.07
2023-05-07T08:36:25.364Z,7.90
2023-05-07T08:38:55.924Z,8.52
2023-05-07T08:41:24.396Z,8.40
2023-05-07T08:43:53.475Z,8.70
2023-05-07T08:46:22.790Z,8.23
2023-05-07T08:48:51.427Z,9.23
2023-05-07T08:51:21.030Z,7.50
2023-05-07T08:53:50.929Z,8.90
2023-05-07T08:56:22.451Z,8.63
2023-05-07T08:58:51.321Z,8.82
2023-05-07T09:01:19.905Z,9.13
2023-05-07T09:03:48.997Z,9.48
2023-05-07T09:06:18.569Z,8.85
2023-05-07T09:08:51.700Z,9.13
2023-05-07T09:11:24.771Z,9.13
2023-05-07T09:13:57.080Z,8.73
2023-05-07T09:16:26.379Z,9.57
2023-05-07T09:18:55.711Z,9.52
2023-05-07T09:21:24.830Z,9.40
2023-05-07T09:23:53.679Z,11.85
2023-05-07T09:26:25.608Z,9.35
2023-05-07T09:28:54.515Z,9.38
2023-05-07T09:31:24.855Z,9.07
2023-05-07T09:33:53.492Z,8.90
2023-05-07T09:36:21.927Z,9.25
2023-05-07T09:38:52.424Z,9.02
2023-05-07T09:41:22.200Z,12.15
2023-05-07T09:43:56.258Z,11.07
2023-05-07T09:46:28.157Z,9.50
2023-05-07T09:48:59.832Z,9.15
2023-05-07T09:51:32.353Z,9.93
2023-05-07T09:54:01.964Z,9.88
2023-05-07T09:56:30.552Z,9.25
2023-05-07T09:59:02.167Z,9.10
2023-05-07T10:01:31.256Z,10.52
2023-05-07T10:04:00.356Z,10.40
2023-05-07T10:06:29.309Z,10.07
2023-05-07T10:08:57.895Z,10.18
2023-05-07T10:11:26.367Z,10.20
2023-05-07T10:13:55.201Z,8.43
2023-05-07T10:16:25.271Z,9.32
2023-05-07T10:18:53.925Z,10.20
2023-05-07T10:21:22.863Z,9.65
2023-05-07T10:23:52.205Z,10.02
2023-05-07T10:26:23.527Z,11.45
2023-05-07T10:28:53.706Z,13.40
2023-05-07T10:31:33.921Z,12.40
2023-05-07T10:34:02.763Z,11.05
2023-05-07T10:36:32.033Z,10.38
2023-05-07T10:39:00.616Z,11.43
2023-05-07T10:41:29.092Z,10.50
2023-05-07T10:43:57.553Z,10.02
2023-05-07T10:46:27.428Z,12.63
2023-05-07T10:49:17.351Z,10.30
2023-05-07T10:51:48.070Z,10.30
2023-05-07T10:54:28.462Z,10.25
2023-05-07T10:56:56.926Z,9.85
2023-05-07T10:59:49.548Z,12.13
2023-05-07T11:02:19.347Z,9.30
2023-05-07T11:04:48.040Z,9.25
2023-05-07T11:07:29.525Z,9.88
2023-05-07T11:10:08.667Z,11.55
2023-05-07T11:12:50.062Z,13.00
2023-05-07T11:15:35.955Z,11.43
2023-05-07T11:18:05.988Z,17.92
2023-05-07T11:20:49.924Z,12.57
2023-05-07T11:23:36.748Z,10.52
2023-05-07T11:26:05.899Z,9.75
2023-05-07T11:28:39.146Z,11.15
2023-05-07T11:31:08.270Z,12.60
2023-05-07T11:33:38.631Z,12.45
2023-05-07T11:36:07.849Z,11.65
2023-05-07T11:38:37.973Z,10.45
2023-05-07T11:41:06.509Z,11.35
2023-05-07T11:43:36.809Z,10.98
2023-05-07T11:46:09.452Z,10.27
2023-05-07T11:48:39.413Z,11.55
2023-05-07T11:51:09.779Z,11.45
2023-05-07T11:53:39.285Z,10.27
2023-05-07T11:56:11.081Z,9.98
2023-05-07T11:58:39.937Z,10.50
2023-05-07T12:01:11.100Z,11.52
2023-05-07T12:03:43.763Z,10.45
2023-05-07T12:06:13.445Z,10.55
2023-05-07T12:08:42.768Z,11.07
2023-05-07T12:11:12.767Z,11.55
2023-05-07T12:13:41.180Z,14.80
2023-05-07T12:16:10.100Z,12.27
2023-05-07T12:18:38.822Z,15.18
2023-05-07T12:21:09.498Z,18.25
2023-05-07T12:23:38.772Z,20.63
2023-05-07T12:26:07.894Z,23.17
2023-05-07T12:28:40.673Z,21.67
2023-05-07T12:31:09.541Z,11.85
2023-05-07T12:33:38.679Z,12.55
2023-05-07T12:36:09.783Z,12.23
2023-05-07T12:38:38.910Z,13.25
2023-05-07T12:41:08.206Z,16.38
2023-05-07T12:43:36.673Z,19.58
2023-05-07T12:46:08.394Z,19.65
2023-05-07T12:48:38.969Z,21.83
2023-05-07T12:51:11.261Z,19.23
2023-05-07T12:53:43.299Z,22.88
2023-05-07T12:56:11.852Z,18.45
2023-05-07T12:58:40.293Z,20.67
2023-05-07T13:01:10.969Z,19.27
2023-05-07T13:03:40.801Z,18.10
2023-05-07T13:06:13.265Z,17.60
2023-05-07T13:08:44.165Z,21.13
2023-05-07T13:11:13.362Z,20.58
2023-05-07T13:13:42.362Z,18.55
2023-05-07T13:16:11.461Z,20.98
2023-05-07T13:18:41.338Z,19.02
2023-05-07T13:21:14.259Z,17.98
2023-05-07T13:23:42.848Z,16.00
2023-05-07T13:26:22.502Z,15.88
2023-05-07T13:28:54.942Z,16.35
2023-05-07T13:31:23.577Z,17.35
2023-05-07T13:33:52.023Z,18.23
2023-05-07T13:36:21.874Z,18.63
2023-05-07T13:38:50.683Z,15.90
2023-05-07T13:41:19.111Z,16.85
2023-05-07T13:43:47.576Z,16.80
2023-05-07T13:46:16.037Z,17.13
2023-05-07T13:48:44.706Z,16.88
2023-05-07T13:51:13.461Z,17.33
2023-05-07T13:53:43.250Z,17.15
2023-05-07T13:56:11.874Z,15.60
2023-05-07T13:58:52.104Z,15.55
2023-05-07T14:01:27.876Z,15.15
2023-05-07T14:03:56.502Z,15.00
2023-05-07T14:06:24.983Z,14.90
2023-05-07T14:08:54.761Z,14.60
2023-05-07T14:11:23.354Z,14.43
2023-05-07T14:13:51.785Z,14.10
2023-05-07T14:16:20.254Z,13.68
2023-05-07T14:18:48.916Z,14.10
2023-05-07T14:21:17.350Z,14.30
2023-05-07T14:23:45.791Z,14.20
2023-05-07T14:26:15.690Z,13.98
2023-05-07T14:28:47.334Z,14.30
2023-05-07T14:31:16.365Z,13.55
2023-05-07T14:33:44.804Z,13.98
2023-05-07T14:36:13.391Z,13.63
2023-05-07T14:38:41.868Z,15.52
2023-05-07T14:41:10.375Z,15.23
2023-05-07T14:43:40.214Z,14.32
2023-05-07T14:46:08.692Z,14.00
2023-05-07T14:48:37.130Z,14.60
2023-05-07T14:51:05.784Z,14.50
2023-05-07T14:53:34.276Z,14.30
2023-05-07T14:56:02.767Z,14.40
2023-05-07T14:58:31.190Z,14.18
2023-05-07T15:01:01.618Z,14.80
2023-05-07T15:03:30.583Z,15.15
2023-05-07T15:05:59.139Z,14.70
2023-05-07T15:08:27.605Z,14.60
2023-05-07T15:10:56.381Z,14.85
2023-05-07T15:13:24.879Z,15.23
2023-05-07T15:15:53.596Z,15.77
2023-05-07T15:18:23.458Z,14.90
2023-05-07T15:20:51.957Z,16.98
2023-05-07T15:23:20.508Z,15.88
2023-05-07T15:25:50.435Z,16.10
2023-05-07T15:28:20.953Z,16.90
2023-05-07T15:30:49.372Z,15.88
2023-05-07T15:33:17.868Z,16.23
2023-05-07T15:35:47.668Z,16.88
2023-05-07T15:38:16.777Z,16.85
2023-05-07T15:40:45.783Z,16.27
2023-05-07T15:43:14.362Z,16.63
2023-05-07T15:45:43.692Z,16.65
2023-05-07T15:48:12.571Z,16.25
2023-05-07T15:50:41.318Z,16.60
2023-05-07T15:53:11.135Z,16.67
2023-05-07T15:55:39.568Z,16.65
2023-05-07T15:58:08.016Z,15.95
2023-05-07T16:00:37.301Z,15.63
2023-05-07T16:03:06.092Z,15.40
2023-05-07T16:05:34.666Z,15.65
2023-05-07T16:08:04.172Z,15.32
2023-05-07T16:10:33.988Z,15.23
2023-05-07T16:13:03.058Z,16.30
2023-05-07T16:15:31.540Z,16.25
2023-05-07T16:17:59.977Z,16.85
2023-05-07T16:20:30.397Z,18.35
2023-05-07T16:22:58.983Z,16.85
2023-05-07T16:25:27.540Z,16.73
2023-05-07T16:27:57.383Z,16.77
2023-05-07T16:30:25.838Z,15.18
2023-05-07T16:32:54.361Z,14.82
2023-05-07T16:35:22.864Z,15.98
2023-05-07T16:37:51.310Z,16.10
2023-05-07T16:40:19.770Z,14.40
2023-05-07T16:42:48.167Z,15.10
2023-05-07T16:45:19.262Z,13.73
2023-05-07T16:47:47.755Z,13.95
2023-05-07T16:50:16.207Z,14.32
2023-05-07T16:52:44.655Z,13.27
2023-05-07T16:55:13.347Z,13.70
2023-05-07T16:57:41.973Z,13.48
2023-05-07T17:00:11.745Z,13.75
2023-05-07T17:02:41.624Z,13.60
2023-05-07T17:05:10.973Z,12.75
2023-05-07T17:07:39.781Z,12.20
2023-05-07T17:10:08.644Z,14.23
2023-05-07T17:12:37.793Z,12.75
2023-05-07T17:15:07.074Z,13.88
2023-05-07T17:17:35.636Z,13.52
2023-05-07T17:20:06.266Z,14.10
2023-05-07T17:22:34.701Z,14.18
2023-05-07T17:25:04.353Z,14.45
2023-05-07T17:27:34.323Z,15.32
2023-05-07T17:30:03.056Z,16.20
2023-05-07T17:32:32.854Z,15.50
2023-05-07T17:35:01.292Z,15.38
2023-05-07T17:37:31.138Z,16.35
2023-05-07T17:39:59.563Z,16.17
2023-05-07T17:42:27.999Z,17.05
2023-05-07T17:44:56.445Z,17.15
2023-05-07T17:47:24.901Z,18.02
2023-05-07T17:49:53.351Z,17.85
2023-05-07T17:52:21.786Z,16.80
2023-05-07T17:54:51.641Z,17.27
2023-05-07T17:57:20.020Z,15.55
2023-05-07T17:59:48.474Z,15.70
2023-05-07T18:02:16.956Z,15.82
2023-05-07T18:04:45.630Z,15.13
2023-05-07T18:07:14.098Z,14.65
2023-05-07T18:09:42.536Z,14.43
2023-05-07T18:12:12.365Z,14.23
2023-05-07T18:14:41.066Z,12.52
2023-05-07T18:17:09.500Z,12.95
2023-05-07T18:19:37.933Z,12.25
2023-05-07T18:22:06.344Z,11.80
2023-05-07T18:24:34.796Z,12.13
2023-05-07T18:27:03.208Z,11.55
2023-05-07T18:29:33.008Z,12.02
2023-05-07T18:32:01.609Z,11.40
2023-05-07T18:34:30.242Z,12.27
2023-05-07T18:36:58.683Z,11.85
2023-05-07T18:39:27.168Z,11.00
2023-05-07T18:41:56.630Z,10.88
2023-05-07T18:44:25.133Z,10.38
2023-05-07T18:46:54.980Z,10.40
2023-05-07T18:49:23.392Z,10.57
2023-05-07T18:51:53.294Z,10.15
2023-05-07T18:54:21.737Z,10.73
2023-05-07T18:56:50.554Z,10.43
2023-05-07T18:59:19.182Z,10.32
2023-05-07T19:01:47.719Z,10.18
2023-05-07T19:04:18.263Z,10.52
2023-05-07T19:06:46.726Z,11.40
2023-05-07T19:09:15.367Z,9.73
2023-05-07T19:11:43.788Z,9.40
2023-05-07T19:14:12.213Z,9.82
2023-05-07T19:16:40.688Z,9.27
2023-05-07T19:19:09.237Z,10.63
2023-05-07T19:21:39.105Z,9.32
2023-05-07T19:24:07.904Z,9.45
2023-05-07T19:26:36.322Z,10.48
2023-05-07T19:29:16.397Z,8.95
2023-05-07T19:31:45.686Z,9.30
2023-05-07T19:34:14.640Z,9.15
2023-05-07T19:36:44.548Z,9.80
2023-05-07T19:39:12.981Z,9.77
2023-05-07T19:41:42.801Z,9.77
2023-05-07T19:44:11.399Z,9.50
2023-05-07T19:46:44.608Z,10.10
2023-05-07T19:49:13.453Z,9.88
2023-05-07T19:51:41.881Z,9.02
2023-05-07T19:54:11.732Z,10.38
2023-05-07T19:56:41.834Z,10.02
2023-05-07T19:59:10.360Z,10.88
2023-05-07T20:01:40.013Z,10.48
2023-05-07T20:04:08.601Z,10.63
2023-05-07T20:06:37.103Z,10.27
2023-05-07T20:09:06.341Z,12.88
2023-05-07T20:11:36.130Z,11.57
2023-05-07T20:14:05.824Z,11.20
2023-05-07T20:16:34.432Z,10.85
2023-05-07T20:19:02.900Z,12.07
2023-05-07T20:21:31.398Z,10.63
2023-05-07T20:23:59.927Z,10.90
2023-05-07T20:26:28.371Z,11.18
2023-05-07T20:28:58.152Z,11.68
2023-05-07T20:31:26.801Z,11.88
2023-05-07T20:33:55.366Z,12.07
2023-05-07T20:36:25.990Z,13.30
2023-05-07T20:38:54.508Z,13.07
2023-05-07T20:41:25.111Z,12.65
2023-05-07T20:43:53.535Z,13.63
2023-05-07T20:46:25.327Z,13.30
2023-05-07T20:48:53.952Z,13.10
2023-05-07T20:51:22.339Z,12.85
2023-05-07T20:53:50.784Z,14.30
2023-05-07T20:56:19.203Z,13.93
2023-05-07T20:58:47.612Z,14.18
2023-05-07T21:01:16.115Z,15.70
2023-05-07T21:03:45.977Z,15.52
2023-05-07T21:06:14.396Z,14.93
2023-05-07T21:08:42.856Z,18.02
2023-05-07T21:11:12.996Z,14.68
2023-05-07T21:13:41.501Z,16.20
2023-05-07T21:16:10.837Z,15.82
2023-05-07T21:18:39.320Z,15.68
2023-05-07T21:21:10.777Z,16.90
2023-05-07T21:23:39.564Z,16.80
2023-05-07T21:26:07.974Z,16.88
2023-05-07T21:28:36.496Z,16.80
2023-05-07T21:31:05.218Z,16.95
2023-05-07T21:33:33.844Z,16.73
2023-05-07T21:36:02.257Z,17.08
2023-05-07T21:38:32.164Z,16.70
2023-05-07T21:41:00.664Z,16.50
2023-05-07T21:43:29.119Z,16.92
2023-05-07T21:45:58.250Z,18.85
2023-05-07T21:48:27.782Z,16.95
2023-05-07T21:51:01.507Z,15.75
2023-05-07T21:53:29.950Z,16.05
2023-05-07T21:56:02.302Z,16.98
2023-05-07T21:58:31.920Z,15.93
2023-05-07T22:01:00.441Z,15.73
2023-05-07T22:03:29.024Z,14.82
2023-05-07T22:05:57.507Z,14.80
2023-05-07T22:08:26.171Z,14.50
2023-05-07T22:10:54.673Z,13.70
2023-05-07T22:13:24.826Z,13.57
2023-05-07T22:15:57.515Z,14.77
2023-05-07T22:18:27.133Z,13.15
2023-05-07T22:20:55.576Z,14.18
2023-05-07T22:23:24.008Z,13.27
2023-05-07T22:25:52.675Z,13.35
2023-05-07T22:28:21.428Z,13.90
2023-05-07T22:30:52.279Z,14.35
2023-05-07T22:33:20.759Z,13.40
2023-05-07T22:35:49.167Z,14.77
2023-05-07T22:38:17.573Z,13.70
2023-05-07T22:40:45.987Z,13.63
2023-05-07T22:43:14.469Z,13.82
2023-05-07T22:45:42.922Z,13.25
2023-05-07T22:48:12.799Z,12.68
2023-05-07T22:50:41.397Z,15.63
2023-05-07T22:53:10.088Z,12.35
2023-05-07T22:55:38.580Z,12.25
2023-05-07T22:58:07.974Z,14.40
2023-05-07T23:00:36.398Z,14.85
2023-05-07T23:03:05.041Z,15.00
2023-05-07T23:05:34.922Z,16.38
2023-05-07T23:08:03.368Z,18.38
2023-05-07T23:10:34.538Z,17.05
2023-05-07T23:13:03.149Z,15.48
2023-05-07T23:15:33.291Z,16.50
2023-05-07T23:18:01.798Z,18.08
2023-05-07T23:20:30.219Z,20.33
2023-05-07T23:23:00.379Z,23.85
2023-05-07T23:25:29.691Z,25.33
2023-05-07T23:27:58.107Z,26.95
2023-05-07T23:30:26.705Z,30.15
2023-05-07T23:32:55.287Z,30.95
2023-05-07T23:35:24.320Z,32.83
2023-05-07T23:37:52.730Z,38.60
2023-05-07T23:40:22.754Z,38.67
2023-05-07T23:42:51.245Z,37.92
2023-05-07T23:45:19.663Z,39.10
2023-05-07T23:47:48.159Z,37.60
2023-05-07T23:50:16.673Z,41.80
2023-05-07T23:52:45.114Z,38.28
2023-05-07T23:55:13.888Z,39.92
2023-05-07T23:57:43.677Z,41.10
